Athol, Pennsylvania
Current Conditions -  °F | °C
As of 10:54 AM on Saturday 22 Nov 2014 (Local Time) from KPTW Reporting Station
Clear Clear  
Wind Chill: 29°   Ceiling: Unl
Heat Index: 36°   Visibility: 10mi
Dew Point: 12°   Wind: 9mph
Humidity: 37%   Direction: 200°SSW
Pressure: 30.46"   Gusts: NA
Location:  40.3194°N, 75.7364°W
Report Text: KPTW 221554Z AUTO 20008KT 10SM CLR 02/M11 A3046 RMK AO2 SLP314 T00221111
Loading
Personal Weather Stations






























Interactive Weather Map New forecast layout! Learn more

10-Day Weather Forecast

Advertisements
Track Severe Weather on mobile